首页
METAR-TAF:

METAR-TAF

机场 :

邦里基國際機場

塔拉瓦环礁, 基里巴斯

纬度: 01-21N, 经度: 172-55E, 海拔: 2米

当前天气观测

该预报发布于44分钟前的16:00 UTC
风速6节,风向东北
温度 29°C
湿度 79%
气压 1007 hPa
能见度10公里或以上
少量云层高于1900英尺
散云层高于30000英尺

METAR: NGTA 261600Z 04006KT 9999 FEW019 SCT300 29/25 Q1007

时间: 06:44 (16:44 UTC)

预报

该预报发布于5小时和24分钟前的11:20 UTC
预报有效从26日的 12点(UTC)到 27日的 12点(UTC)
风速7节,风向北转东北
能见度10公里或以上
散云层高于1800英尺
多云层高于10000英尺
小阵雨
几率 30% :
短暂存在
从 26日的 12点(UTC)到 26日的 24点(UTC)
能見度: 5000
少量云层高于1700英尺, 积雨云.
雷暴, 雨

TAF: NGTA 261120Z 2612/2712 02007KT 9999 -SHRA SCT018 BKN100 PROB30 TEMPO 2612/2624 5000 TSRA FEW017CB

超过4000个机场的气象观测和天气预报(METAR&TAF报告)。

可查询的气象台以黄色和红色小点在地图上表示。

将鼠标移到小点上方,可查看气象台名称。

然后点击查看天气观测和预报。

如需切换地图:点击带黑十字的绿色按钮放大地图;点击带横线的绿色按钮缩小地图;或者点击绿色箭头查看邻近地区的地图。


METAR-TAF: